sensor_id;sensor_type;location;lat;lon;timestamp;pressure;altitude;pressure_sealevel;temperature;humidity
14120;BME280;7138;49.246;9.100;2023-04-02T00:01:54;97916.84;;;10.13;100.00
14120;BME280;7138;49.246;9.100;2023-04-02T00:04:21;97915.19;;;10.09;100.00
14120;BME280;7138;49.246;9.100;2023-04-02T00:07:24;97915.19;;;10.09;100.00
14120;BME280;7138;49.246;9.100;2023-04-02T00:09:58;97922.13;;;10.04;100.00
14120;BME280;7138;49.246;9.100;2023-04-02T00:12:24;97922.22;;;9.95;100.00
14120;BME280;7138;49.246;9.100;2023-04-02T00:14:53;97921.16;;;10.12;100.00
14120;BME280;7138;49.246;9.100;2023-04-02T00:17:22;97920.34;;;10.12;100.00
14120;BME280;7138;49.246;9.100;2023-04-02T00:19:55;97922.06;;;10.14;100.00
14120;BME280;7138;49.246;9.100;2023-04-02T00:22:28;97929.91;;;10.01;100.00
14120;BME280;7138;49.246;9.100;2023-04-02T00:24:56;97928.31;;;9.91;100.00
14120;BME280;7138;49.246;9.100;2023-04-02T00:27:24;97927.31;;;10.02;100.00
14120;BME280;7138;49.246;9.100;2023-04-02T00:29:53;97931.56;;;10.08;100.00
14120;BME280;7138;49.246;9.100;2023-04-02T00:32:24;97929.00;;;10.05;100.00
14120;BME280;7138;49.246;9.100;2023-04-02T00:34:52;97931.63;;;10.02;100.00
14120;BME280;7138;49.246;9.100;2023-04-02T00:37:21;97933.25;;;10.10;100.00
14120;BME280;7138;49.246;9.100;2023-04-02T00:39:53;97928.19;;;10.03;100.00
14120;BME280;7138;49.246;9.100;2023-04-02T00:42:22;97930.81;;;10.00;100.00
14120;BME280;7138;49.246;9.100;2023-04-02T00:44:52;97939.31;;;10.06;100.00
14120;BME280;7138;49.246;9.100;2023-04-02T00:47:24;97927.34;;;9.98;100.00
14120;BME280;7138;49.246;9.100;2023-04-02T00:49:56;97943.66;;;10.04;100.00
14120;BME280;7138;49.246;9.100;2023-04-02T00:52:28;97934.94;;;10.13;100.00
14120;BME280;7138;49.246;9.100;2023-04-02T00:55:04;97934.13;;;10.08;100.00
14120;BME280;7138;49.246;9.100;2023-04-02T00:57:32;97926.50;;;9.99;100.00
14120;BME280;7138;49.246;9.100;2023-04-02T01:00:09;97934.97;;;10.11;100.00
14120;BME280;7138;49.246;9.100;2023-04-02T01:02:41;97946.19;;;10.09;100.00
14120;BME280;7138;49.246;9.100;2023-04-02T01:05:21;97945.22;;;10.20;100.00
14120;BME280;7138;49.246;9.100;2023-04-02T01:08:01;97951.28;;;10.18;100.00
14120;BME280;7138;49.246;9.100;2023-04-02T01:10:54;97950.50;;;10.07;100.00
14120;BME280;7138;49.246;9.100;2023-04-02T01:13:31;97948.75;;;10.12;100.00
14120;BME280;7138;49.246;9.100;2023-04-02T01:16:09;97955.59;;;10.16;100.00
14120;BME280;7138;49.246;9.100;2023-04-02T01:18:53;97954.63;;;10.26;100.00
14120;BME280;7138;49.246;9.100;2023-04-02T01:21:40;97961.50;;;10.28;100.00
14120;BME280;7138;49.246;9.100;2023-04-02T01:24:18;97966.66;;;10.30;100.00
14120;BME280;7138;49.246;9.100;2023-04-02T01:26:57;97957.91;;;10.41;100.00
14120;BME280;7138;49.246;9.100;2023-04-02T01:29:29;97965.66;;;10.41;100.00
14120;BME280;7138;49.246;9.100;2023-04-02T01:32:00;97964.84;;;10.35;100.00
14120;BME280;7138;49.246;9.100;2023-04-02T01:34:28;97964.84;;;10.35;100.00
14120;BME280;7138;49.246;9.100;2023-04-02T01:37:16;97969.13;;;10.37;100.00
14120;BME280;7138;49.246;9.100;2023-04-02T01:40:04;97963.13;;;10.34;100.00
14120;BME280;7138;49.246;9.100;2023-04-02T01:42:37;97975.22;;;10.32;100.00
14120;BME280;7138;49.246;9.100;2023-04-02T01:45:12;97970.94;;;10.31;100.00
14120;BME280;7138;49.246;9.100;2023-04-02T01:47:39;97977.88;;;10.24;100.00
14120;BME280;7138;49.246;9.100;2023-04-02T01:50:21;97978.75;;;10.26;100.00
14120;BME280;7138;49.246;9.100;2023-04-02T01:52:53;97990.00;;;10.21;100.00
14120;BME280;7138;49.246;9.100;2023-04-02T01:55:30;97991.78;;;10.11;100.00
14120;BME280;7138;49.246;9.100;2023-04-02T01:57:59;97990.91;;;10.15;100.00
14120;BME280;7138;49.246;9.100;2023-04-02T02:00:28;97995.09;;;10.27;100.00
14120;BME280;7138;49.246;9.100;2023-04-02T02:02:55;97996.00;;;10.23;100.00
14120;BME280;7138;49.246;9.100;2023-04-02T02:05:22;98004.66;;;10.19;100.00
14120;BME280;7138;49.246;9.100;2023-04-02T02:07:49;98002.09;;;10.16;100.00
14120;BME280;7138;49.246;9.100;2023-04-02T02:10:23;98013.19;;;10.25;100.00
14120;BME280;7138;49.246;9.100;2023-04-02T02:12:50;98002.94;;;10.21;100.00
14120;BME280;7138;49.246;9.100;2023-04-02T02:15:19;97999.44;;;10.22;100.00
14120;BME280;7138;49.246;9.100;2023-04-02T02:17:48;98008.94;;;10.20;100.00
14120;BME280;7138;49.246;9.100;2023-04-02T02:20:15;97996.81;;;10.25;100.00
14120;BME280;7138;49.246;9.100;2023-04-02T02:22:45;98004.59;;;10.25;100.00
14120;BME280;7138;49.246;9.100;2023-04-02T02:25:16;98009.75;;;10.26;100.00
14120;BME280;7138;49.246;9.100;2023-04-02T02:27:54;98010.56;;;10.28;100.00
14120;BME280;7138;49.246;9.100;2023-04-02T02:30:26;98014.88;;;10.28;100.00
14120;BME280;7138;49.246;9.100;2023-04-02T02:33:04;98011.38;;;10.35;100.00
14120;BME280;7138;49.246;9.100;2023-04-02T02:35:37;98009.69;;;10.31;100.00
14120;BME280;7138;49.246;9.100;2023-04-02T02:38:46;98012.19;;;10.38;100.00
14120;BME280;7138;49.246;9.100;2023-04-02T02:41:23;98020.84;;;10.34;100.00
14120;BME280;7138;49.246;9.100;2023-04-02T02:43:59;98026.00;;;10.36;100.00
14120;BME280;7138;49.246;9.100;2023-04-02T02:46:27;98002.94;;;10.19;100.00
14120;BME280;7138;49.246;9.100;2023-04-02T02:48:58;98031.25;;;10.30;100.00
14120;BME280;7138;49.246;9.100;2023-04-02T02:51:36;98036.34;;;10.34;100.00
14120;BME280;7138;49.246;9.100;2023-04-02T02:54:04;98038.97;;;10.33;100.00
14120;BME280;7138;49.246;9.100;2023-04-02T02:56:31;98041.47;;;10.37;100.00
14120;BME280;7138;49.246;9.100;2023-04-02T02:59:04;98038.03;;;10.38;100.00
14120;BME280;7138;49.246;9.100;2023-04-02T03:01:32;98031.19;;;10.36;100.00
14120;BME280;7138;49.246;9.100;2023-04-02T03:04:00;98040.63;;;10.37;100.00
14120;BME280;7138;49.246;9.100;2023-04-02T03:06:26;98043.28;;;10.31;100.00
14120;BME280;7138;49.246;9.100;2023-04-02T03:09:02;98047.69;;;10.20;100.00
14120;BME280;7138;49.246;9.100;2023-04-02T03:11:37;98052.91;;;10.11;100.00
14120;BME280;7138;49.246;9.100;2023-04-02T03:14:15;98052.94;;;10.06;100.00
14120;BME280;7138;49.246;9.100;2023-04-02T03:16:48;98051.41;;;9.88;100.00
14120;BME280;7138;49.246;9.100;2023-04-02T03:19:28;98068.56;;;9.94;100.00
14120;BME280;7138;49.246;9.100;2023-04-02T03:22:03;98059.06;;;9.99;100.00
14120;BME280;7138;49.246;9.100;2023-04-02T03:24:40;98067.69;;;9.97;100.00
14120;BME280;7138;49.246;9.100;2023-04-02T03:27:15;98072.94;;;9.87;100.00
14120;BME280;7138;49.246;9.100;2023-04-02T03:29:50;98076.44;;;9.77;100.00
14120;BME280;7138;49.246;9.100;2023-04-02T03:32:22;98075.59;;;9.78;100.00
14120;BME280;7138;49.246;9.100;2023-04-02T03:34:56;98068.63;;;9.85;100.00
14120;BME280;7138;49.246;9.100;2023-04-02T03:37:31;98069.44;;;9.92;100.00
14120;BME280;7138;49.246;9.100;2023-04-02T03:40:03;98068.59;;;9.89;100.00
14120;BME280;7138;49.246;9.100;2023-04-02T03:42:41;98078.84;;;9.97;100.00
14120;BME280;7138;49.246;9.100;2023-04-02T03:45:15;98077.09;;;10.04;100.00
14120;BME280;7138;49.246;9.100;2023-04-02T03:47:50;98083.06;;;10.10;100.00
14120;BME280;7138;49.246;9.100;2023-04-02T03:50:26;98085.63;;;10.18;100.00
14120;BME280;7138;49.246;9.100;2023-04-02T03:52:56;98086.38;;;10.24;100.00
14120;BME280;7138;49.246;9.100;2023-04-02T03:55:27;98093.22;;;10.31;100.00
14120;BME280;7138;49.246;9.100;2023-04-02T03:58:01;98092.28;;;10.41;100.00
14120;BME280;7138;49.246;9.100;2023-04-02T04:00:35;98093.25;;;10.30;100.00
14120;BME280;7138;49.246;9.100;2023-04-02T04:03:10;98097.50;;;10.34;100.00
14120;BME280;7138;49.246;9.100;2023-04-02T04:05:48;98090.63;;;10.36;100.00
14120;BME280;7138;49.246;9.100;2023-04-02T04:08:19;98099.38;;;10.20;100.00
14120;BME280;7138;49.246;9.100;2023-04-02T04:10:51;98102.81;;;10.20;100.00
14120;BME280;7138;49.246;9.100;2023-04-02T04:13:27;98107.16;;;10.09;100.00
14120;BME280;7138;49.246;9.100;2023-04-02T04:16:01;98103.72;;;10.12;100.00
14120;BME280;7138;49.246;9.100;2023-04-02T04:18:36;98108.00;;;10.13;100.00
14120;BME280;7138;49.246;9.100;2023-04-02T04:21:15;98119.25;;;10.09;100.00
14120;BME280;7138;49.246;9.100;2023-04-02T04:23:55;98117.53;;;10.05;100.00
14120;BME280;7138;49.246;9.100;2023-04-02T04:26:30;98116.69;;;10.04;100.00
14120;BME280;7138;49.246;9.100;2023-04-02T04:29:13;98119.31;;;9.98;100.00
14120;BME280;7138;49.246;9.100;2023-04-02T04:31:45;98122.84;;;9.89;100.00
14120;BME280;7138;49.246;9.100;2023-04-02T04:34:18;98134.88;;;9.91;100.00
14120;BME280;7138;49.246;9.100;2023-04-02T04:36:53;98133.16;;;9.89;100.00
14120;BME280;7138;49.246;9.100;2023-04-02T04:39:26;98137.56;;;9.78;100.00
14120;BME280;7138;49.246;9.100;2023-04-02T04:42:00;98137.44;;;9.94;100.00
14120;BME280;7138;49.246;9.100;2023-04-02T04:44:41;98145.09;;;10.06;100.00
14120;BME280;7138;49.246;9.100;2023-04-02T04:47:15;98142.50;;;10.04;100.00
14120;BME280;7138;49.246;9.100;2023-04-02T04:49:47;98151.09;;;10.14;100.00
14120;BME280;7138;49.246;9.100;2023-04-02T04:52:21;98157.94;;;10.21;100.00
14120;BME280;7138;49.246;9.100;2023-04-02T04:54:48;98151.00;;;10.23;100.00
14120;BME280;7138;49.246;9.100;2023-04-02T04:57:30;98162.06;;;10.37;100.00
14120;BME280;7138;49.246;9.100;2023-04-02T05:00:04;98171.63;;;10.29;100.00
14120;BME280;7138;49.246;9.100;2023-04-02T05:02:38;98165.56;;;10.36;100.00
14120;BME280;7138;49.246;9.100;2023-04-02T05:05:17;98173.25;;;10.42;100.00
14120;BME280;7138;49.246;9.100;2023-04-02T05:07:50;98177.53;;;10.43;100.00
14120;BME280;7138;49.246;9.100;2023-04-02T05:10:29;98182.78;;;10.35;100.00
14120;BME280;7138;49.246;9.100;2023-04-02T05:13:04;98193.19;;;10.26;100.00
14120;BME280;7138;49.246;9.100;2023-04-02T05:15:37;98192.31;;;10.26;100.00
14120;BME280;7138;49.246;9.100;2023-04-02T05:18:20;98201.78;;;10.28;100.00
14120;BME280;7138;49.246;9.100;2023-04-02T05:20:54;98200.91;;;10.28;100.00
14120;BME280;7138;49.246;9.100;2023-04-02T05:23:26;98209.47;;;10.36;100.00
14120;BME280;7138;49.246;9.100;2023-04-02T05:25:59;98208.63;;;10.35;100.00
14120;BME280;7138;49.246;9.100;2023-04-02T05:28:34;98204.28;;;10.39;100.00
14120;BME280;7138;49.246;9.100;2023-04-02T05:31:07;98208.56;;;10.40;100.00
14120;BME280;7138;49.246;9.100;2023-04-02T05:33:37;98214.59;;;10.42;100.00
14120;BME280;7138;49.246;9.100;2023-04-02T05:36:07;98209.47;;;10.39;100.00
14120;BME280;7138;49.246;9.100;2023-04-02T05:38:39;98231.78;;;10.46;100.00
14120;BME280;7138;49.246;9.100;2023-04-02T05:41:20;98222.28;;;10.50;100.00
14120;BME280;7138;49.246;9.100;2023-04-02T05:43:55;98231.81;;;10.43;100.00
14120;BME280;7138;49.246;9.100;2023-04-02T05:46:27;98235.22;;;10.51;100.00
14120;BME280;7138;49.246;9.100;2023-04-02T05:48:58;98232.56;;;10.57;100.00
14120;BME280;7138;49.246;9.100;2023-04-02T05:51:30;98241.16;;;10.59;100.00
14120;BME280;7138;49.246;9.100;2023-04-02T05:54:04;98229.91;;;10.65;100.00
14120;BME280;7138;49.246;9.100;2023-04-02T05:56:36;98236.84;;;10.58;100.00
14120;BME280;7138;49.246;9.100;2023-04-02T05:59:11;98247.13;;;10.64;100.00
14120;BME280;7138;49.246;9.100;2023-04-02T06:01:45;98249.69;;;10.72;100.00
14120;BME280;7138;49.246;9.100;2023-04-02T06:04:21;98248.75;;;10.79;100.00
14120;BME280;7138;49.246;9.100;2023-04-02T06:07:02;98253.94;;;10.77;100.00
14120;BME280;7138;49.246;9.100;2023-04-02T06:09:40;98257.38;;;10.76;100.00
14120;BME280;7138;49.246;9.100;2023-04-02T06:12:20;98266.00;;;10.78;100.00
14120;BME280;7138;49.246;9.100;2023-04-02T06:14:47;98266.88;;;10.79;100.00
14120;BME280;7138;49.246;9.100;2023-04-02T06:17:14;98281.50;;;10.81;100.00
14120;BME280;7138;49.246;9.100;2023-04-02T06:19:41;98282.38;;;10.77;100.00
14120;BME280;7138;49.246;9.100;2023-04-02T06:22:17;98275.47;;;10.78;100.00
14120;BME280;7138;49.246;9.100;2023-04-02T06:24:51;98285.91;;;10.67;100.00
14120;BME280;7138;49.246;9.100;2023-04-02T06:27:22;98292.88;;;10.56;100.00
14120;BME280;7138;49.246;9.100;2023-04-02T06:29:55;98285.09;;;10.59;100.00
14120;BME280;7138;49.246;9.100;2023-04-02T06:32:24;98301.44;;;10.64;100.00
14120;BME280;7138;49.246;9.100;2023-04-02T06:34:51;98299.81;;;10.51;100.00
14120;BME280;7138;49.246;9.100;2023-04-02T06:37:26;98301.50;;;10.55;100.00
14120;BME280;7138;49.246;9.100;2023-04-02T06:39:57;98304.03;;;10.61;100.00
14120;BME280;7138;49.246;9.100;2023-04-02T06:42:27;98308.38;;;10.61;100.00
14120;BME280;7138;49.246;9.100;2023-04-02T06:44:54;98304.03;;;10.64;100.00
14120;BME280;7138;49.246;9.100;2023-04-02T06:47:29;98313.47;;;10.68;100.00
14120;BME280;7138;49.246;9.100;2023-04-02T06:50:05;98315.22;;;10.65;100.00
14120;BME280;7138;49.246;9.100;2023-04-02T06:52:36;98323.81;;;10.70;100.00
14120;BME280;7138;49.246;9.100;2023-04-02T06:55:28;98321.22;;;10.71;100.00
14120;BME280;7138;49.246;9.100;2023-04-02T06:57:54;98324.69;;;10.64;100.00
14120;BME280;7138;49.246;9.100;2023-04-02T07:00:27;98322.97;;;10.65;100.00
14120;BME280;7138;49.246;9.100;2023-04-02T07:02:57;98329.81;;;10.70;100.00
14120;BME280;7138;49.246;9.100;2023-04-02T07:05:24;98335.91;;;10.65;100.00
14120;BME280;7138;49.246;9.100;2023-04-02T07:07:50;98340.22;;;10.64;100.00
14120;BME280;7138;49.246;9.100;2023-04-02T07:10:18;98337.59;;;10.70;100.00
14120;BME280;7138;49.246;9.100;2023-04-02T07:12:45;98347.03;;;10.77;100.00
14120;BME280;7138;49.246;9.100;2023-04-02T07:15:14;98353.06;;;10.78;100.00
14120;BME280;7138;49.246;9.100;2023-04-02T07:17:41;98353.88;;;10.84;100.00
14120;BME280;7138;49.246;9.100;2023-04-02T07:20:25;98353.91;;;10.77;100.00
14120;BME280;7138;49.246;9.100;2023-04-02T07:22:52;98362.63;;;10.67;100.00
14120;BME280;7138;49.246;9.100;2023-04-02T07:25:19;98361.72;;;10.71;100.00
14120;BME280;7138;49.246;9.100;2023-04-02T07:27:45;98363.47;;;10.64;100.00
14120;BME280;7138;49.246;9.100;2023-04-02T07:30:11;98368.59;;;10.73;100.00
14120;BME280;7138;49.246;9.100;2023-04-02T07:32:38;98367.72;;;10.79;100.00
14120;BME280;7138;49.246;9.100;2023-04-02T07:35:05;98374.56;;;10.87;100.00
14120;BME280;7138;49.246;9.100;2023-04-02T07:37:31;98377.88;;;11.02;100.00
14120;BME280;7138;49.246;9.100;2023-04-02T07:39:57;98390.00;;;10.95;100.00
14120;BME280;7138;49.246;9.100;2023-04-02T07:42:24;98387.38;;;11.01;100.00
14120;BME280;7138;49.246;9.100;2023-04-02T07:44:49;98394.31;;;10.96;100.00
14120;BME280;7138;49.246;9.100;2023-04-02T07:47:15;98392.59;;;10.96;100.00
14120;BME280;7138;49.246;9.100;2023-04-02T07:49:41;98398.56;;;11.05;100.00
14120;BME280;7138;49.246;9.100;2023-04-02T07:52:07;98401.94;;;11.13;100.00
14120;BME280;7138;49.246;9.100;2023-04-02T07:54:33;98407.09;;;11.14;100.00
14120;BME280;7138;49.246;9.100;2023-04-02T07:57:00;98400.09;;;11.30;100.00
14120;BME280;7138;49.246;9.100;2023-04-02T07:59:27;98406.88;;;11.41;100.00
14120;BME280;7138;49.246;9.100;2023-04-02T08:01:53;98409.44;;;11.44;100.00
14120;BME280;7138;49.246;9.100;2023-04-02T08:04:21;98420.56;;;11.56;100.00
14120;BME280;7138;49.246;9.100;2023-04-02T08:06:48;98424.88;;;11.55;100.00
14120;BME280;7138;49.246;9.100;2023-04-02T08:09:15;98431.81;;;11.55;100.00
14120;BME280;7138;49.246;9.100;2023-04-02T08:11:42;98433.59;;;11.48;100.00
14120;BME280;7138;49.246;9.100;2023-04-02T08:14:08;98437.00;;;11.51;100.00
14120;BME280;7138;49.246;9.100;2023-04-02T08:16:48;98445.59;;;11.52;100.00
14120;BME280;7138;49.246;9.100;2023-04-02T08:19:14;98446.50;;;11.51;100.00
14120;BME280;7138;49.246;9.100;2023-04-02T08:21:40;98449.22;;;11.36;100.00
14120;BME280;7138;49.246;9.100;2023-04-02T08:24:06;98447.41;;;11.44;100.00
14120;BME280;7138;49.246;9.100;2023-04-02T08:26:32;98457.81;;;11.39;100.00
14120;BME280;7138;49.246;9.100;2023-04-02T08:28:58;98458.59;;;11.47;100.00
14120;BME280;7138;49.246;9.100;2023-04-02T08:31:24;98463.72;;;11.53;100.00
14120;BME280;7138;49.246;9.100;2023-04-02T08:33:51;98464.41;;;11.77;100.00
14120;BME280;7138;49.246;9.100;2023-04-02T08:36:25;98474.81;;;11.75;100.00
14120;BME280;7138;49.246;9.100;2023-04-02T08:38:51;98475.63;;;11.77;100.00
14120;BME280;7138;49.246;9.100;2023-04-02T08:41:23;98479.09;;;11.79;100.00
14120;BME280;7138;49.246;9.100;2023-04-02T08:44:17;98484.22;;;11.84;100.00
14120;BME280;7138;49.246;9.100;2023-04-02T08:46:50;98476.38;;;11.91;100.00
14120;BME280;7138;49.246;9.100;2023-04-02T08:49:29;98483.09;;;12.12;100.00
14120;BME280;7138;49.246;9.100;2023-04-02T08:51:56;98483.03;;;12.17;100.00
14120;BME280;7138;49.246;9.100;2023-04-02T08:54:27;98490.66;;;12.29;100.00
14120;BME280;7138;49.246;9.100;2023-04-02T08:56:59;98490.63;;;12.32;100.00
14120;BME280;7138;49.246;9.100;2023-04-02T08:59:32;98501.75;;;12.41;99.71
14120;BME280;7138;49.246;9.100;2023-04-02T09:02:20;98506.91;;;12.46;99.45
14120;BME280;7138;49.246;9.100;2023-04-02T09:04:51;98504.28;;;12.49;99.47
14120;BME280;7138;49.246;9.100;2023-04-02T09:07:17;98511.88;;;12.63;100.00
14120;BME280;7138;49.246;9.100;2023-04-02T09:09:47;98517.88;;;12.69;99.74
14120;BME280;7138;49.246;9.100;2023-04-02T09:12:18;98522.19;;;12.69;98.92
14120;BME280;7138;49.246;9.100;2023-04-02T09:14:59;98526.63;;;12.60;98.51
14120;BME280;7138;49.246;9.100;2023-04-02T09:17:30;98528.53;;;12.43;98.09
14120;BME280;7138;49.246;9.100;2023-04-02T09:20:03;98530.31;;;12.40;99.22
14120;BME280;7138;49.246;9.100;2023-04-02T09:22:33;98531.91;;;12.50;99.56
14120;BME280;7138;49.246;9.100;2023-04-02T09:25:03;98522.34;;;12.58;100.00
14120;BME280;7138;49.246;9.100;2023-04-02T09:27:32;98538.72;;;12.58;99.51
14120;BME280;7138;49.246;9.100;2023-04-02T09:30:02;98538.50;;;12.78;100.00
14120;BME280;7138;49.246;9.100;2023-04-02T09:32:49;98540.84;;;13.01;99.39
14120;BME280;7138;49.246;9.100;2023-04-02T09:35:20;98547.63;;;13.12;97.53
14120;BME280;7138;49.246;9.100;2023-04-02T09:37:46;98548.31;;;13.24;97.53
14120;BME280;7138;49.246;9.100;2023-04-02T09:40:25;98548.25;;;13.30;96.49
14120;BME280;7138;49.246;9.100;2023-04-02T09:43:09;98551.53;;;13.41;96.19
14120;BME280;7138;49.246;9.100;2023-04-02T09:45:36;98553.22;;;13.46;96.29
14120;BME280;7138;49.246;9.100;2023-04-02T09:48:21;98553.03;;;13.57;94.85
14120;BME280;7138;49.246;9.100;2023-04-02T09:51:02;98558.09;;;13.66;94.70
14120;BME280;7138;49.246;9.100;2023-04-02T09:53:33;98555.69;;;13.55;93.01
14120;BME280;7138;49.246;9.100;2023-04-02T09:56:13;98572.91;;;13.59;93.14
14120;BME280;7138;49.246;9.100;2023-04-02T09:58:41;98576.59;;;13.45;93.50
14120;BME280;7138;49.246;9.100;2023-04-02T10:01:28;98577.41;;;13.48;93.43
14120;BME280;7138;49.246;9.100;2023-04-02T10:03:55;98586.06;;;13.49;93.19
14120;BME280;7138;49.246;9.100;2023-04-02T10:06:22;98581.88;;;13.40;92.24
14120;BME280;7138;49.246;9.100;2023-04-02T10:08:48;98583.56;;;13.41;92.64
14120;BME280;7138;49.246;9.100;2023-04-02T10:11:18;98591.34;;;13.43;92.95
14120;BME280;7138;49.246;9.100;2023-04-02T10:13:52;98595.69;;;13.42;93.33
14120;BME280;7138;49.246;9.100;2023-04-02T10:16:26;98594.88;;;13.39;93.23
14120;BME280;7138;49.246;9.100;2023-04-02T10:18:59;98601.91;;;13.29;93.17
14120;BME280;7138;49.246;9.100;2023-04-02T10:21:33;98596.84;;;13.22;93.53
14120;BME280;7138;49.246;9.100;2023-04-02T10:24:00;98605.41;;;13.27;94.81
14120;BME280;7138;49.246;9.100;2023-04-02T10:26:52;98611.59;;;13.17;93.01
14120;BME280;7138;49.246;9.100;2023-04-02T10:29:46;98598.72;;;13.04;93.19
14120;BME280;7138;49.246;9.100;2023-04-02T10:32:20;98609.97;;;13.09;93.41
14120;BME280;7138;49.246;9.100;2023-04-02T10:34:55;98603.88;;;13.10;93.84
14120;BME280;7138;49.246;9.100;2023-04-02T10:38:08;98620.09;;;13.31;93.59
14120;BME280;7138;49.246;9.100;2023-04-02T10:40:45;98609.66;;;13.32;92.93
14120;BME280;7138;49.246;9.100;2023-04-02T10:43:52;98621.44;;;13.57;93.03
14120;BME280;7138;49.246;9.100;2023-04-02T10:46:25;98630.16;;;13.55;91.85
14120;BME280;7138;49.246;9.100;2023-04-02T10:49:11;98628.28;;;13.63;91.76
14120;BME280;7138;49.246;9.100;2023-04-02T10:51:43;98639.34;;;13.77;92.43
14120;BME280;7138;49.246;9.100;2023-04-02T10:54:31;98633.19;;;13.84;90.96
14120;BME280;7138;49.246;9.100;2023-04-02T10:57:05;98642.56;;;13.94;90.96
14120;BME280;7138;49.246;9.100;2023-04-02T10:59:38;98647.91;;;13.85;89.98
14120;BME280;7138;49.246;9.100;2023-04-02T11:02:24;98647.03;;;13.83;88.93
14120;BME280;7138;49.246;9.100;2023-04-02T11:04:56;98650.66;;;13.75;90.08
14120;BME280;7138;49.246;9.100;2023-04-02T11:07:29;98658.38;;;13.79;90.32
14120;BME280;7138;49.246;9.100;2023-04-02T11:09:59;98665.56;;;13.59;89.86
14120;BME280;7138;49.246;9.100;2023-04-02T11:12:37;98667.41;;;13.52;89.20
14120;BME280;7138;49.246;9.100;2023-04-02T11:15:15;98677.16;;;13.37;89.59
14120;BME280;7138;49.246;9.100;2023-04-02T11:17:42;98681.69;;;13.18;90.08
14120;BME280;7138;49.246;9.100;2023-04-02T11:21:03;98687.84;;;13.08;91.11
14120;BME280;7138;49.246;9.100;2023-04-02T11:23:33;98696.69;;;12.86;90.48
14120;BME280;7138;49.246;9.100;2023-04-02T11:26:37;98698.69;;;12.56;90.34
14120;BME280;7138;49.246;9.100;2023-04-02T11:29:20;98702.22;;;12.49;90.63
14120;BME280;7138;49.246;9.100;2023-04-02T11:31:49;98708.44;;;12.30;91.18
14120;BME280;7138;49.246;9.100;2023-04-02T11:35:01;98709.41;;;12.19;91.82
14120;BME280;7138;49.246;9.100;2023-04-02T11:37:34;98717.25;;;12.07;92.55
14120;BME280;7138;49.246;9.100;2023-04-02T11:40:05;98719.88;;;12.03;93.76
14120;BME280;7138;49.246;9.100;2023-04-02T11:42:34;98730.28;;;11.93;92.99
14120;BME280;7138;49.246;9.100;2023-04-02T11:45:50;98734.63;;;11.88;92.17
14120;BME280;7138;49.246;9.100;2023-04-02T11:48:29;98735.47;;;11.90;93.94
14120;BME280;7138;49.246;9.100;2023-04-02T11:50:56;98733.75;;;11.86;93.18
14120;BME280;7138;49.246;9.100;2023-04-02T11:53:29;98744.16;;;11.84;93.21
14120;BME280;7138;49.246;9.100;2023-04-02T11:56:15;98743.28;;;11.88;93.12
14120;BME280;7138;49.246;9.100;2023-04-02T11:59:00;98751.06;;;11.85;92.35
14120;BME280;7138;49.246;9.100;2023-04-02T12:02:00;98754.47;;;11.86;93.43
14120;BME280;7138;49.246;9.100;2023-04-02T12:05:02;98756.25;;;11.78;94.73
14120;BME280;7138;49.246;9.100;2023-04-02T12:10:55;98765.78;;;11.74;93.55
14120;BME280;7138;49.246;9.100;2023-04-02T12:13:52;98758.88;;;11.72;91.77
14120;BME280;7138;49.246;9.100;2023-04-02T12:16:19;98773.63;;;11.51;91.19
14120;BME280;7138;49.246;9.100;2023-04-02T12:18:48;98775.28;;;11.65;92.65
14120;BME280;7138;49.246;9.100;2023-04-02T12:21:23;98777.88;;;11.71;92.89
14120;BME280;7138;49.246;9.100;2023-04-02T12:23:52;98780.44;;;11.74;92.70
14120;BME280;7138;49.246;9.100;2023-04-02T12:26:32;98776.97;;;11.81;91.41
14120;BME280;7138;49.246;9.100;2023-04-02T12:29:21;98783.06;;;11.72;91.09
14120;BME280;7138;49.246;9.100;2023-04-02T12:31:48;98789.09;;;11.73;90.59
14120;BME280;7138;49.246;9.100;2023-04-02T12:34:17;98793.41;;;11.75;90.83
14120;BME280;7138;49.246;9.100;2023-04-02T12:36:55;98796.84;;;11.68;90.33
14120;BME280;7138;49.246;9.100;2023-04-02T12:39:22;98802.03;;;11.65;91.60
14120;BME280;7138;49.246;9.100;2023-04-02T12:41:48;98801.22;;;11.49;91.97
14120;BME280;7138;49.246;9.100;2023-04-02T12:44:18;98802.94;;;11.57;92.14
14120;BME280;7138;49.246;9.100;2023-04-02T12:46:48;98803.78;;;11.59;92.93
14120;BME280;7138;49.246;9.100;2023-04-02T12:49:31;98814.13;;;11.66;91.87
14120;BME280;7138;49.246;9.100;2023-04-02T12:52:02;98807.22;;;11.74;92.45
14120;BME280;7138;49.246;9.100;2023-04-02T12:54:32;98821.84;;;11.87;93.38
14120;BME280;7138;49.246;9.100;2023-04-02T12:57:38;98816.63;;;11.96;92.08
14120;BME280;7138;49.246;9.100;2023-04-02T13:00:32;98817.53;;;11.88;90.47
14120;BME280;7138;49.246;9.100;2023-04-02T13:03:14;98830.47;;;11.89;91.41
14120;BME280;7138;49.246;9.100;2023-04-02T13:05:47;98840.03;;;11.78;90.53
14120;BME280;7138;49.246;9.100;2023-04-02T13:08:17;98842.63;;;11.78;89.99
14120;BME280;7138;49.246;9.100;2023-04-02T13:10:44;98843.47;;;11.74;89.88
14120;BME280;7138;49.246;9.100;2023-04-02T13:13:16;98850.38;;;11.77;90.04
14120;BME280;7138;49.246;9.100;2023-04-02T13:16:18;98852.97;;;11.68;89.67
14120;BME280;7138;49.246;9.100;2023-04-02T13:18:49;98830.59;;;11.41;90.67
14120;BME280;7138;49.246;9.100;2023-04-02T13:21:23;98852.97;;;11.62;90.58
14120;BME280;7138;49.246;9.100;2023-04-02T13:23:52;98856.47;;;11.47;90.01
14120;BME280;7138;49.246;9.100;2023-04-02T13:26:21;98852.16;;;11.34;89.36
14120;BME280;7138;49.246;9.100;2023-04-02T13:28:59;98860.81;;;11.22;89.73
14120;BME280;7138;49.246;9.100;2023-04-02T13:31:26;98863.41;;;11.21;90.04
14120;BME280;7138;49.246;9.100;2023-04-02T13:33:52;98862.53;;;11.22;90.54
14120;BME280;7138;49.246;9.100;2023-04-02T13:36:18;98865.13;;;11.22;90.00
14120;BME280;7138;49.246;9.100;2023-04-02T13:38:44;98869.44;;;11.26;90.57
14120;BME280;7138;49.246;9.100;2023-04-02T13:41:20;98873.75;;;11.19;89.51
14120;BME280;7138;49.246;9.100;2023-04-02T13:43:48;98867.72;;;11.23;90.11
14120;BME280;7138;49.246;9.100;2023-04-02T13:46:19;98871.16;;;11.30;90.51